Alert, Canada
Current Conditions -  °F | °C
As of 1:00 PM on Sunday 21 Dec 2014 (Local Time) from CWEU Reporting Station
Few Clouds Few Clouds  
Wind Chill: -49°   Ceiling: Unl
Heat Index: -40°   Visibility: 15mi
Dew Point: -43°   Wind: 5mph
Humidity: 74%   Direction: 160°SSE
Pressure: 30.05"   Gusts: NA
Location:  82.47°N, 62.5°W
Report Text: CWEU 211800Z 16004KT 15SM FEW100 M40/M43 A3005 RMK AC1 SLP177
Loading
Personal Weather Stations






























Interactive Weather Map New forecast layout! Learn more

10-Day Weather Forecast

Advertisements
Track Severe Weather on mobile